createdAt,value
2023-11-28T00:01:40.856Z,56.83
2023-11-28T00:04:09.637Z,50.83
2023-11-28T00:06:38.196Z,53.73
2023-11-28T00:09:06.724Z,51.97
2023-11-28T00:11:35.359Z,52.33
2023-11-28T00:14:03.939Z,64.47
2023-11-28T00:16:34.022Z,55.40
2023-11-28T00:19:03.313Z,56.60
2023-11-28T00:21:32.283Z,57.07
2023-11-28T00:24:03.193Z,57.57
2023-11-28T00:26:31.731Z,52.07
2023-11-28T00:29:02.242Z,57.20
2023-11-28T00:31:33.063Z,51.97
2023-11-28T00:34:03.234Z,51.30
2023-11-28T00:36:32.443Z,60.83
2023-11-28T00:39:00.922Z,47.50
2023-11-28T00:41:29.438Z,53.97
2023-11-28T00:43:58.020Z,48.77
2023-11-28T00:46:26.759Z,55.70
2023-11-28T00:48:55.351Z,58.17
2023-11-28T00:51:25.322Z,51.30
2023-11-28T00:53:53.868Z,57.87
2023-11-28T00:56:23.287Z,48.57
2023-11-28T00:58:52.135Z,50.93
2023-11-28T01:01:20.745Z,47.67
2023-11-28T01:03:49.476Z,48.73
2023-11-28T01:06:18.111Z,49.53
2023-11-28T01:08:48.411Z,50.03
2023-11-28T01:11:17.976Z,56.30
2023-11-28T01:13:46.487Z,58.23
2023-11-28T01:16:15.248Z,47.47
2023-11-28T01:18:43.719Z,52.67
2023-11-28T01:21:12.355Z,54.07
2023-11-28T01:23:40.862Z,49.70
2023-11-28T01:26:11.024Z,47.13
2023-11-28T01:28:39.489Z,51.77
2023-11-28T01:31:08.531Z,53.57
2023-11-28T01:33:37.417Z,47.57
2023-11-28T01:36:06.951Z,51.17
2023-11-28T01:38:39.293Z,50.30
2023-11-28T01:41:09.423Z,52.80
2023-11-28T01:43:39.341Z,51.07
2023-11-28T01:46:11.161Z,52.23
2023-11-28T01:48:40.602Z,49.47
2023-11-28T01:51:13.437Z,50.07
2023-11-28T01:53:43.258Z,47.03
2023-11-28T01:56:13.169Z,53.97
2023-11-28T01:58:45.031Z,53.70
2023-11-28T02:01:16.059Z,55.23
2023-11-28T02:03:44.797Z,62.43
2023-11-28T02:06:16.453Z,50.87
2023-11-28T02:08:44.905Z,53.43
2023-11-28T02:11:13.809Z,52.90
2023-11-28T02:13:43.723Z,55.33
2023-11-28T02:16:15.121Z,51.13
2023-11-28T02:18:44.489Z,54.90
2023-11-28T02:21:14.122Z,52.10
2023-11-28T02:23:43.977Z,48.40
2023-11-28T02:26:35.187Z,52.43
2023-11-28T02:29:03.752Z,49.63
2023-11-28T02:31:32.449Z,51.23
2023-11-28T02:34:03.418Z,50.70
2023-11-28T02:36:32.010Z,46.67
2023-11-28T02:39:00.460Z,56.60
2023-11-28T02:41:29.043Z,49.70
2023-11-28T02:43:57.919Z,46.70
2023-11-28T02:46:26.714Z,51.40
2023-11-28T02:48:57.693Z,55.97
2023-11-28T02:51:28.255Z,53.30
2023-11-28T02:53:56.775Z,52.60
2023-11-28T02:56:25.301Z,50.13
2023-11-28T02:58:55.583Z,54.13
2023-11-28T03:01:25.589Z,52.50
2023-11-28T03:03:54.184Z,51.67
2023-11-28T03:06:23.664Z,53.97
2023-11-28T03:08:52.787Z,60.80
2023-11-28T03:11:21.347Z,58.10
2023-11-28T03:13:49.910Z,59.80
2023-11-28T03:16:18.431Z,55.90
2023-11-28T03:18:48.404Z,56.10
2023-11-28T03:21:17.423Z,65.93
2023-11-28T03:23:45.888Z,60.63
2023-11-28T03:26:17.447Z,59.03
2023-11-28T03:28:46.644Z,54.40
2023-11-28T03:31:15.237Z,57.40
2023-11-28T03:33:43.730Z,57.17
2023-11-28T03:36:20.214Z,63.43
2023-11-28T03:38:50.174Z,61.30
2023-11-28T03:41:21.727Z,62.07
2023-11-28T03:43:50.378Z,57.77
2023-11-28T03:46:19.542Z,62.17
2023-11-28T03:48:48.053Z,60.97
2023-11-28T03:51:16.633Z,59.90
2023-11-28T03:53:48.967Z,56.77
2023-11-28T03:56:18.268Z,64.27
2023-11-28T03:58:46.817Z,61.63
2023-11-28T04:01:15.589Z,64.50
2023-11-28T04:03:44.481Z,63.10
2023-11-28T04:06:13.342Z,65.80
2023-11-28T04:08:41.946Z,65.93
2023-11-28T04:11:12.014Z,72.97
2023-11-28T04:13:40.502Z,73.03
2023-11-28T04:16:09.701Z,81.77
2023-11-28T04:18:41.524Z,91.87
2023-11-28T04:21:15.709Z,94.87
2023-11-28T04:23:48.563Z,116.27
2023-11-28T04:26:20.101Z,119.47
2023-11-28T04:28:48.975Z,124.57
2023-11-28T04:31:21.545Z,122.93
2023-11-28T04:33:56.977Z,119.47
2023-11-28T04:36:26.989Z,127.97
2023-11-28T04:38:55.683Z,136.40
2023-11-28T04:41:25.700Z,131.27
2023-11-28T04:43:54.359Z,114.30
2023-11-28T04:46:23.568Z,108.33
2023-11-28T04:48:52.119Z,113.80
2023-11-28T04:51:20.942Z,107.70
2023-11-28T04:53:49.401Z,113.03
2023-11-28T04:56:19.733Z,111.10
2023-11-28T04:58:49.806Z,103.40
2023-11-28T05:01:18.323Z,94.87
2023-11-28T05:03:46.974Z,85.80
2023-11-28T05:06:15.514Z,82.93
2023-11-28T05:08:44.117Z,73.53
2023-11-28T05:11:15.754Z,77.33
2023-11-28T05:13:44.367Z,76.10
2023-11-28T05:16:14.569Z,80.97
2023-11-28T05:18:45.579Z,71.60
2023-11-28T05:21:15.872Z,67.50
2023-11-28T05:23:51.297Z,68.83
2023-11-28T05:26:20.530Z,62.47
2023-11-28T05:28:50.580Z,59.07
2023-11-28T05:31:20.897Z,62.63
2023-11-28T05:33:49.638Z,62.77
2023-11-28T05:36:18.920Z,56.83
2023-11-28T05:38:49.200Z,57.20
2023-11-28T05:41:17.745Z,60.37
2023-11-28T05:43:46.762Z,58.30
2023-11-28T05:46:15.412Z,55.50
2023-11-28T05:48:45.437Z,56.30
2023-11-28T05:51:16.053Z,58.97
2023-11-28T05:53:45.384Z,59.20
2023-11-28T05:56:14.969Z,71.00
2023-11-28T05:58:43.498Z,66.60
2023-11-28T06:01:15.736Z,79.80
2023-11-28T06:03:46.736Z,86.90
2023-11-28T06:06:15.645Z,102.37
2023-11-28T06:08:46.580Z,116.03
2023-11-28T06:11:16.698Z,119.37
2023-11-28T06:13:45.531Z,131.53
2023-11-28T06:16:15.565Z,133.57
2023-11-28T06:18:46.060Z,144.90
2023-11-28T06:21:15.305Z,137.90
2023-11-28T06:23:45.513Z,137.77
2023-11-28T06:26:14.524Z,135.77
2023-11-28T06:28:43.840Z,137.07
2023-11-28T06:31:12.838Z,133.73
2023-11-28T06:33:41.840Z,135.07
2023-11-28T06:36:15.603Z,133.60
2023-11-28T06:38:44.024Z,128.93
2023-11-28T06:41:13.206Z,122.83
2023-11-28T06:43:41.785Z,114.57
2023-11-28T06:46:10.461Z,123.87
2023-11-28T06:48:40.123Z,105.40
2023-11-28T06:51:09.826Z,109.93
2023-11-28T06:53:39.778Z,100.97
2023-11-28T06:56:09.884Z,103.77
2023-11-28T06:58:43.594Z,99.97
2023-11-28T07:01:12.738Z,112.70
2023-11-28T07:03:41.320Z,97.20
2023-11-28T07:06:10.539Z,103.47
2023-11-28T07:08:41.326Z,102.10
2023-11-28T07:11:18.085Z,106.97
2023-11-28T07:13:46.716Z,119.60
2023-11-28T07:16:15.784Z,110.47
2023-11-28T07:18:44.561Z,118.83
2023-11-28T07:21:16.637Z,119.07
2023-11-28T07:23:47.286Z,110.60
2023-11-28T07:26:16.117Z,118.03
2023-11-28T07:28:44.647Z,112.07
2023-11-28T07:31:15.315Z,118.13
2023-11-28T07:33:43.973Z,122.87
2023-11-28T07:36:15.547Z,118.27
2023-11-28T07:38:46.758Z,113.50
2023-11-28T07:41:16.844Z,124.03
2023-11-28T07:43:45.672Z,114.13
2023-11-28T07:46:14.452Z,118.80
2023-11-28T07:48:43.570Z,111.80
2023-11-28T07:51:12.100Z,124.63
2023-11-28T07:53:40.637Z,110.50
2023-11-28T07:56:12.023Z,122.33
2023-11-28T07:58:40.557Z,115.70
2023-11-28T08:01:08.997Z,113.20
2023-11-28T08:03:38.262Z,117.83
2023-11-28T08:06:08.246Z,114.10
2023-11-28T08:08:37.963Z,111.93
2023-11-28T08:11:07.594Z,126.23
2023-11-28T08:13:37.562Z,116.43
2023-11-28T08:16:09.686Z,114.07
2023-11-28T08:18:41.183Z,119.27
2023-11-28T08:21:12.183Z,113.30
2023-11-28T08:23:45.016Z,101.20
2023-11-28T08:26:13.666Z,110.30
2023-11-28T08:28:43.872Z,99.80
2023-11-28T08:31:12.470Z,99.33
2023-11-28T08:33:40.948Z,95.80
2023-11-28T08:36:09.989Z,100.43
2023-11-28T08:38:40.078Z,103.20
2023-11-28T08:41:09.902Z,92.00
2023-11-28T08:43:40.980Z,92.53
2023-11-28T08:46:15.310Z,96.13
2023-11-28T08:48:44.207Z,101.43
2023-11-28T08:51:13.581Z,101.13
2023-11-28T08:53:42.609Z,85.07
2023-11-28T08:56:14.423Z,97.67
2023-11-28T08:58:43.239Z,82.50
2023-11-28T09:01:13.214Z,85.43
2023-11-28T09:03:41.965Z,76.53
2023-11-28T09:06:11.608Z,71.80
2023-11-28T09:08:42.926Z,71.77
2023-11-28T09:11:18.058Z,73.10
2023-11-28T09:13:46.580Z,70.07
2023-11-28T09:16:16.533Z,69.97
2023-11-28T09:18:47.046Z,75.53
2023-11-28T09:21:16.770Z,77.30
2023-11-28T09:23:45.377Z,69.80
2023-11-28T09:26:14.155Z,63.60
2023-11-28T09:28:42.805Z,65.93
2023-11-28T09:31:11.477Z,65.37
2023-11-28T09:33:41.888Z,68.80
2023-11-28T09:36:11.820Z,62.30
2023-11-28T09:38:43.197Z,60.93
2023-11-28T09:41:12.913Z,57.37
2023-11-28T09:43:42.242Z,58.07
2023-11-28T09:46:10.878Z,60.33
2023-11-28T09:48:44.120Z,58.63
2023-11-28T09:51:13.468Z,63.47
2023-11-28T09:53:44.311Z,60.63
2023-11-28T09:56:14.411Z,53.43
2023-11-28T09:58:42.882Z,52.57
2023-11-28T10:01:16.821Z,49.50
2023-11-28T10:03:46.879Z,49.23
2023-11-28T10:06:19.905Z,46.83
2023-11-28T10:08:50.422Z,47.03
2023-11-28T10:11:20.107Z,49.90
2023-11-28T10:13:49.179Z,40.87
2023-11-28T10:16:18.023Z,43.43
2023-11-28T10:18:50.009Z,38.13
2023-11-28T10:21:18.832Z,37.80
2023-11-28T10:23:48.525Z,40.00
2023-11-28T10:26:17.235Z,43.33
2023-11-28T10:28:49.724Z,36.07
2023-11-28T10:31:19.742Z,37.63
2023-11-28T10:33:49.712Z,34.63
2023-11-28T10:36:18.346Z,32.13
2023-11-28T10:38:46.837Z,30.57
2023-11-28T10:41:15.498Z,29.90
2023-11-28T10:43:47.055Z,30.03
2023-11-28T10:46:18.559Z,32.10
2023-11-28T10:48:47.185Z,35.00
2023-11-28T10:51:19.342Z,33.90
2023-11-28T10:53:50.486Z,35.80
2023-11-28T10:56:22.701Z,31.57
2023-11-28T10:58:51.247Z,32.77
2023-11-28T11:01:20.891Z,35.40
2023-11-28T11:03:49.826Z,32.83
2023-11-28T11:06:20.014Z,33.40
2023-11-28T11:08:49.590Z,31.03
2023-11-28T11:11:19.092Z,30.13
2023-11-28T11:13:59.955Z,31.87
2023-11-28T11:16:37.862Z,31.03
2023-11-28T11:19:09.370Z,31.20
2023-11-28T11:21:44.788Z,31.57
2023-11-28T11:24:18.083Z,30.63
2023-11-28T11:26:49.937Z,29.90
2023-11-28T11:29:35.401Z,28.60
2023-11-28T11:32:03.988Z,28.70
2023-11-28T11:34:37.127Z,29.07
2023-11-28T11:37:12.231Z,31.57
2023-11-28T11:39:42.030Z,28.87
2023-11-28T11:42:13.395Z,28.97
2023-11-28T11:44:43.432Z,30.07
2023-11-28T11:47:19.676Z,29.10
2023-11-28T11:49:50.294Z,32.70
2023-11-28T11:52:25.752Z,28.70
2023-11-28T11:55:04.208Z,30.70
2023-11-28T11:57:33.285Z,30.93
2023-11-28T12:00:02.104Z,28.50
2023-11-28T12:02:40.139Z,28.43
2023-11-28T12:05:12.458Z,27.30
2023-11-28T12:07:44.027Z,26.13
2023-11-28T12:10:14.652Z,27.07
2023-11-28T12:12:45.103Z,27.57
2023-11-28T12:15:14.672Z,25.43
2023-11-28T12:17:43.563Z,26.07
2023-11-28T12:20:13.443Z,36.93
2023-11-28T12:22:43.630Z,27.40
2023-11-28T12:25:20.171Z,24.73
2023-11-28T12:27:48.884Z,28.87
2023-11-28T12:30:18.379Z,26.07
2023-11-28T12:32:49.663Z,28.00
2023-11-28T12:35:19.353Z,27.33
2023-11-28T12:37:50.078Z,24.27
2023-11-28T12:40:23.531Z,30.30
2023-11-28T12:42:52.320Z,31.63
2023-11-28T12:45:22.180Z,34.27
2023-11-28T12:47:49.884Z,28.70
2023-11-28T12:50:19.058Z,30.40
2023-11-28T12:52:49.336Z,29.60
2023-11-28T12:55:18.125Z,29.67
2023-11-28T12:57:47.233Z,29.80
2023-11-28T13:00:17.661Z,24.20
2023-11-28T13:02:47.718Z,29.67
2023-11-28T13:05:16.538Z,25.20
2023-11-28T13:07:51.569Z,27.10
2023-11-28T13:10:23.693Z,25.50
2023-11-28T13:13:03.689Z,23.33
2023-11-28T13:15:40.459Z,32.83
2023-11-28T13:18:10.399Z,27.27
2023-11-28T13:20:39.218Z,30.10
2023-11-28T13:23:07.890Z,26.90
2023-11-28T13:25:37.757Z,26.13
2023-11-28T13:28:09.205Z,26.87
2023-11-28T13:30:40.664Z,25.70
2023-11-28T13:33:09.277Z,28.60
2023-11-28T13:35:40.169Z,30.83
2023-11-28T13:38:11.175Z,30.97
2023-11-28T13:40:46.338Z,26.10
2023-11-28T13:43:14.947Z,29.73
2023-11-28T13:45:43.534Z,28.50
2023-11-28T13:48:12.120Z,30.27
2023-11-28T13:50:40.760Z,29.47
2023-11-28T13:53:09.305Z,30.27
2023-11-28T13:55:39.209Z,28.27
2023-11-28T13:58:09.531Z,28.90
2023-11-28T14:00:38.060Z,26.90
2023-11-28T14:03:08.614Z,33.10
2023-11-28T14:05:39.220Z,31.90
2023-11-28T14:08:08.176Z,36.10
2023-11-28T14:10:36.821Z,36.70
2023-11-28T14:13:05.877Z,45.93
2023-11-28T14:15:35.897Z,44.20
2023-11-28T14:18:07.641Z,41.10
2023-11-28T14:20:36.411Z,38.47
2023-11-28T14:23:08.269Z,37.77
2023-11-28T14:25:40.058Z,39.67
2023-11-28T14:28:12.059Z,37.93
2023-11-28T14:30:42.379Z,35.20
2023-11-28T14:33:11.733Z,35.47
2023-11-28T14:35:43.474Z,34.40
2023-11-28T14:38:12.390Z,35.03
2023-11-28T14:40:41.080Z,41.37
2023-11-28T14:43:09.615Z,35.23
2023-11-28T14:45:38.165Z,33.67
2023-11-28T14:48:08.309Z,32.43
2023-11-28T14:50:37.764Z,34.73
2023-11-28T14:53:07.544Z,29.07
2023-11-28T14:55:38.261Z,32.50
2023-11-28T14:58:07.370Z,32.40
2023-11-28T15:00:36.133Z,35.87
2023-11-28T15:03:06.069Z,53.33
2023-11-28T15:05:36.391Z,35.27
2023-11-28T15:08:05.055Z,36.20
2023-11-28T15:10:36.598Z,41.50
2023-11-28T15:13:07.762Z,37.77
2023-11-28T15:15:38.274Z,40.03
2023-11-28T15:18:06.909Z,53.53
2023-11-28T15:20:36.896Z,40.37
2023-11-28T15:23:08.610Z,46.30
2023-11-28T15:25:38.440Z,43.80
2023-11-28T15:28:07.030Z,42.60
2023-11-28T15:30:35.538Z,48.70
2023-11-28T15:33:06.410Z,64.20
2023-11-28T15:35:37.610Z,51.30
2023-11-28T15:38:06.428Z,44.60
2023-11-28T15:40:38.055Z,59.60
2023-11-28T15:43:07.392Z,43.60
2023-11-28T15:45:35.868Z,46.00
2023-11-28T15:48:05.689Z,41.03
2023-11-28T15:50:35.739Z,40.17
2023-11-28T15:53:06.192Z,48.57
2023-11-28T15:55:35.512Z,44.53
2023-11-28T15:58:04.012Z,49.70
2023-11-28T16:00:32.625Z,47.93
2023-11-28T16:03:02.039Z,56.00
2023-11-28T16:05:33.227Z,48.90
2023-11-28T16:08:05.349Z,39.10
2023-11-28T16:10:36.529Z,45.20
2023-11-28T16:13:05.116Z,41.30
2023-11-28T16:15:33.933Z,54.93
2023-11-28T16:18:02.575Z,49.30
2023-11-28T16:20:33.944Z,48.90
2023-11-28T16:23:03.174Z,49.50
2023-11-28T16:25:31.677Z,47.67
2023-11-28T16:28:03.775Z,45.20
2023-11-28T16:30:32.286Z,39.27
2023-11-28T16:33:01.043Z,41.20
2023-11-28T16:35:29.788Z,33.20
2023-11-28T16:37:58.546Z,36.73
2023-11-28T16:40:30.119Z,39.20
2023-11-28T16:43:02.215Z,42.00
2023-11-28T16:45:31.010Z,46.07
2023-11-28T16:47:59.645Z,44.80
2023-11-28T16:50:28.262Z,60.30
2023-11-28T16:52:57.566Z,46.00
2023-11-28T16:55:26.216Z,41.23
2023-11-28T16:57:54.774Z,49.80
2023-11-28T17:00:31.000Z,43.23
2023-11-28T17:02:59.744Z,45.07
2023-11-28T17:05:30.323Z,42.33
2023-11-28T17:07:59.602Z,39.03
2023-11-28T17:10:32.538Z,40.33
2023-11-28T17:13:01.119Z,49.03
2023-11-28T17:15:31.108Z,50.07
2023-11-28T17:18:00.585Z,43.03
2023-11-28T17:20:32.003Z,53.07
2023-11-28T17:23:03.162Z,47.87
2023-11-28T17:25:31.870Z,44.37
2023-11-28T17:28:00.795Z,48.40
2023-11-28T17:30:30.732Z,49.43
2023-11-28T17:32:59.607Z,40.67
2023-11-28T17:35:28.033Z,39.97
2023-11-28T17:37:58.674Z,43.90
2023-11-28T17:40:27.197Z,45.47
2023-11-28T17:42:55.780Z,46.30
2023-11-28T17:45:24.316Z,44.50
2023-11-28T17:47:54.262Z,40.80
2023-11-28T17:50:23.185Z,39.70
2023-11-28T17:52:51.717Z,42.27
2023-11-28T17:55:20.202Z,47.23
2023-11-28T17:57:48.752Z,41.33
2023-11-28T18:00:21.276Z,46.53
2023-11-28T18:02:52.930Z,39.57
2023-11-28T18:05:23.542Z,46.87
2023-11-28T18:07:52.646Z,40.87
2023-11-28T18:10:26.291Z,41.67
2023-11-28T18:12:59.303Z,48.17
2023-11-28T18:15:32.690Z,42.10
2023-11-28T18:18:03.428Z,38.13
2023-11-28T18:20:37.347Z,38.37
2023-11-28T18:23:08.417Z,36.53
2023-11-28T18:25:36.988Z,34.00
2023-11-28T18:28:05.906Z,33.97
2023-11-28T18:30:37.636Z,34.37
2023-11-28T18:33:06.263Z,34.67
2023-11-28T18:35:36.186Z,30.00
2023-11-28T18:38:04.953Z,33.13
2023-11-28T18:40:35.674Z,37.93
2023-11-28T18:43:04.950Z,30.93
2023-11-28T18:45:33.430Z,26.97
2023-11-28T18:48:01.955Z,26.30
2023-11-28T18:50:32.493Z,27.80
2023-11-28T18:53:02.902Z,29.43
2023-11-28T18:55:35.663Z,29.40
2023-11-28T18:58:04.124Z,33.40
2023-11-28T19:00:32.703Z,26.43
2023-11-28T19:03:01.365Z,29.90
2023-11-28T19:05:33.934Z,27.73
2023-11-28T19:08:04.406Z,26.53
2023-11-28T19:10:33.955Z,29.70
2023-11-28T19:13:03.729Z,28.13
2023-11-28T19:15:32.134Z,30.30
2023-11-28T19:18:00.653Z,22.13
2023-11-28T19:20:29.292Z,22.50
2023-11-28T19:22:58.162Z,24.97
2023-11-28T19:25:29.343Z,24.40
2023-11-28T19:28:00.192Z,19.90
2023-11-28T19:30:28.821Z,25.90
2023-11-28T19:32:58.617Z,24.73
2023-11-28T19:35:27.237Z,19.43
2023-11-28T19:37:57.629Z,17.00
2023-11-28T19:40:28.858Z,15.40
2023-11-28T19:42:57.816Z,16.73
2023-11-28T19:45:26.409Z,15.60
2023-11-28T19:47:55.712Z,16.67
2023-11-28T19:50:25.635Z,19.00
2023-11-28T19:52:55.573Z,14.77
2023-11-28T19:55:24.906Z,11.33
2023-11-28T19:57:56.611Z,13.40
2023-11-28T20:00:26.135Z,15.60
2023-11-28T20:02:55.752Z,16.20
2023-11-28T20:05:26.054Z,16.00
2023-11-28T20:07:57.211Z,11.83
2023-11-28T20:10:31.995Z,12.07
2023-11-28T20:13:06.611Z,16.10
2023-11-28T20:15:38.581Z,14.47
2023-11-28T20:18:09.519Z,23.60
2023-11-28T20:20:38.909Z,14.40
2023-11-28T20:23:10.496Z,19.43
2023-11-28T20:25:39.180Z,15.60
2023-11-28T20:28:10.845Z,19.30
2023-11-28T20:30:40.346Z,15.13
2023-11-28T20:33:09.328Z,14.90
2023-11-28T20:35:38.939Z,17.90
2023-11-28T20:38:07.853Z,13.33
2023-11-28T20:40:37.029Z,16.03
2023-11-28T20:43:05.652Z,14.43
2023-11-28T20:45:35.607Z,12.97
2023-11-28T20:48:05.883Z,14.73
2023-11-28T20:50:35.776Z,11.50
2023-11-28T20:53:04.671Z,10.57
2023-11-28T20:55:36.198Z,11.63
2023-11-28T20:58:05.013Z,13.43
2023-11-28T21:00:35.028Z,9.63
2023-11-28T21:03:05.070Z,8.93
2023-11-28T21:05:38.179Z,10.43
2023-11-28T21:08:08.607Z,12.33
2023-11-28T21:10:39.427Z,11.50
2023-11-28T21:13:07.912Z,11.60
2023-11-28T21:15:38.435Z,12.60
2023-11-28T21:18:09.477Z,9.37
2023-11-28T21:20:39.501Z,10.50
2023-11-28T21:23:08.489Z,11.67
2023-11-28T21:25:38.027Z,10.00
2023-11-28T21:28:11.641Z,10.97
2023-11-28T21:30:42.802Z,34.63
2023-11-28T21:33:12.128Z,32.20
2023-11-28T21:35:42.622Z,13.43
2023-11-28T21:38:11.506Z,20.67
2023-11-28T21:40:45.461Z,17.73
2023-11-28T21:43:17.966Z,22.70
2023-11-28T21:45:48.398Z,30.73
2023-11-28T21:48:22.637Z,27.17
2023-11-28T21:50:57.517Z,17.37
2023-11-28T21:53:26.427Z,13.30
2023-11-28T21:55:54.953Z,13.83
2023-11-28T21:58:23.501Z,11.60
2023-11-28T22:00:53.451Z,11.77
2023-11-28T22:03:23.124Z,12.27
2023-11-28T22:05:51.799Z,13.07
2023-11-28T22:08:23.372Z,10.60
2023-11-28T22:10:53.145Z,11.43
2023-11-28T22:13:22.354Z,11.90
2023-11-28T22:15:52.266Z,8.70
2023-11-28T22:18:21.114Z,9.10
2023-11-28T22:20:49.874Z,8.23
2023-11-28T22:23:18.476Z,7.00
2023-11-28T22:25:47.106Z,9.63
2023-11-28T22:28:18.019Z,9.60
2023-11-28T22:30:46.489Z,9.27
2023-11-28T22:33:17.825Z,10.67
2023-11-28T22:35:49.179Z,10.70
2023-11-28T22:38:19.820Z,14.50
2023-11-28T22:40:49.610Z,8.80
2023-11-28T22:43:18.016Z,8.90
2023-11-28T22:45:46.681Z,9.97
2023-11-28T22:48:19.582Z,9.40
2023-11-28T22:50:48.107Z,9.27
2023-11-28T22:53:16.682Z,10.43
2023-11-28T22:55:45.229Z,10.47
2023-11-28T22:58:13.681Z,11.50
2023-11-28T23:00:44.170Z,12.17
2023-11-28T23:03:12.682Z,9.77
2023-11-28T23:05:42.780Z,11.37
2023-11-28T23:08:11.311Z,10.00
2023-11-28T23:10:39.862Z,13.17
2023-11-28T23:13:08.733Z,8.33
2023-11-28T23:15:40.131Z,9.27
2023-11-28T23:18:09.723Z,14.00
2023-11-28T23:20:38.317Z,9.43
2023-11-28T23:23:08.156Z,7.87
2023-11-28T23:25:36.624Z,21.23
2023-11-28T23:28:06.077Z,11.20
2023-11-28T23:30:37.423Z,8.70
2023-11-28T23:33:06.026Z,8.07
2023-11-28T23:35:34.624Z,8.57
2023-11-28T23:38:05.574Z,10.20
2023-11-28T23:40:35.459Z,8.50
2023-11-28T23:43:04.028Z,4.53
2023-11-28T23:45:32.595Z,10.60
2023-11-28T23:48:01.235Z,6.87
2023-11-28T23:50:29.904Z,11.47
2023-11-28T23:52:59.310Z,5.30
2023-11-28T23:55:29.234Z,5.20
2023-11-28T23:57:59.549Z,4.10
